sensor_id;sensor_type;location;lat;lon;timestamp;pressure;altitude;pressure_sealevel;temperature;humidity
41264;BME280;26998;48.714;9.414;2024-03-07T00:02:11;99388.41;;;4.21;92.38
41264;BME280;26998;48.714;9.414;2024-03-07T00:04:38;99387.16;;;4.17;92.54
41264;BME280;26998;48.714;9.414;2024-03-07T00:07:05;99357.88;;;4.06;92.65
41264;BME280;26998;48.714;9.414;2024-03-07T00:09:36;99386.31;;;4.17;93.27
41264;BME280;26998;48.714;9.414;2024-03-07T00:12:03;99350.44;;;3.95;92.80
41264;BME280;26998;48.714;9.414;2024-03-07T00:14:33;99351.84;;;4.05;92.98
41264;BME280;26998;48.714;9.414;2024-03-07T00:17:02;99364.59;;;4.08;91.53
41264;BME280;26998;48.714;9.414;2024-03-07T00:19:29;99356.59;;;4.24;91.29
41264;BME280;26998;48.714;9.414;2024-03-07T00:21:56;99353.91;;;4.32;89.10
41264;BME280;26998;48.714;9.414;2024-03-07T00:24:23;99376.28;;;4.43;86.66
41264;BME280;26998;48.714;9.414;2024-03-07T00:26:50;99385.94;;;4.65;87.65
41264;BME280;26998;48.714;9.414;2024-03-07T00:29:18;99387.63;;;4.58;86.33
41264;BME280;26998;48.714;9.414;2024-03-07T00:31:46;99345.16;;;4.40;86.75
41264;BME280;26998;48.714;9.414;2024-03-07T00:34:14;99376.47;;;4.56;86.58
41264;BME280;26998;48.714;9.414;2024-03-07T00:36:50;99367.47;;;4.73;84.32
41264;BME280;26998;48.714;9.414;2024-03-07T00:39:18;99380.50;;;4.66;83.70
41264;BME280;26998;48.714;9.414;2024-03-07T00:41:46;99380.06;;;4.78;82.20
41264;BME280;26998;48.714;9.414;2024-03-07T00:44:13;99340.00;;;4.46;82.16
41264;BME280;26998;48.714;9.414;2024-03-07T00:46:40;99363.81;;;4.59;82.33
41264;BME280;26998;48.714;9.414;2024-03-07T00:49:07;99362.56;;;4.55;82.35
41264;BME280;26998;48.714;9.414;2024-03-07T00:51:34;99378.78;;;4.59;81.80
41264;BME280;26998;48.714;9.414;2024-03-07T00:54:00;99357.28;;;4.41;81.56
41264;BME280;26998;48.714;9.414;2024-03-07T00:56:27;99333.03;;;4.16;82.42
41264;BME280;26998;48.714;9.414;2024-03-07T00:58:55;99343.63;;;4.23;81.98
41264;BME280;26998;48.714;9.414;2024-03-07T01:01:24;99371.16;;;4.27;82.61
41264;BME280;26998;48.714;9.414;2024-03-07T01:03:50;99352.16;;;4.25;81.38
41264;BME280;26998;48.714;9.414;2024-03-07T01:06:18;99364.94;;;4.28;82.35
41264;BME280;26998;48.714;9.414;2024-03-07T01:08:46;99361.50;;;4.42;82.47
41264;BME280;26998;48.714;9.414;2024-03-07T01:11:13;99329.28;;;3.96;84.08
41264;BME280;26998;48.714;9.414;2024-03-07T01:13:40;99366.97;;;4.18;84.05
41264;BME280;26998;48.714;9.414;2024-03-07T01:16:07;99328.75;;;3.78;84.97
41264;BME280;26998;48.714;9.414;2024-03-07T01:18:34;99351.13;;;3.89;84.03
41264;BME280;26998;48.714;9.414;2024-03-07T01:21:02;99355.38;;;3.90;85.25
41264;BME280;26998;48.714;9.414;2024-03-07T01:23:29;99364.66;;;4.00;84.88
41264;BME280;26998;48.714;9.414;2024-03-07T01:25:59;99343.38;;;3.73;85.61
41264;BME280;26998;48.714;9.414;2024-03-07T01:28:33;99364.34;;;3.95;85.39
41264;BME280;26998;48.714;9.414;2024-03-07T01:30:59;99352.34;;;4.01;85.38
41264;BME280;26998;48.714;9.414;2024-03-07T01:33:26;99357.59;;;4.60;81.76
41264;BME280;26998;48.714;9.414;2024-03-07T01:35:53;99349.19;;;4.65;79.26
41264;BME280;26998;48.714;9.414;2024-03-07T01:38:20;99331.31;;;4.46;80.62
41264;BME280;26998;48.714;9.414;2024-03-07T01:40:46;99355.78;;;4.61;80.95
41264;BME280;26998;48.714;9.414;2024-03-07T01:43:13;99347.78;;;4.40;80.82
41264;BME280;26998;48.714;9.414;2024-03-07T01:45:39;99337.81;;;4.35;81.83
41264;BME280;26998;48.714;9.414;2024-03-07T01:48:09;99338.41;;;4.23;82.87
41264;BME280;26998;48.714;9.414;2024-03-07T01:53:13;99319.91;;;4.39;81.92
41264;BME280;26998;48.714;9.414;2024-03-07T01:55:40;99321.44;;;4.11;83.23
41264;BME280;26998;48.714;9.414;2024-03-07T01:58:09;99328.22;;;4.05;84.50
41264;BME280;26998;48.714;9.414;2024-03-07T02:00:40;99321.09;;;4.36;83.30
41264;BME280;26998;48.714;9.414;2024-03-07T02:03:07;99327.63;;;4.55;82.13
41264;BME280;26998;48.714;9.414;2024-03-07T02:05:34;99306.59;;;4.40;82.34
41264;BME280;26998;48.714;9.414;2024-03-07T02:08:00;99328.78;;;4.38;81.40
41264;BME280;26998;48.714;9.414;2024-03-07T02:10:28;99294.81;;;3.85;81.48
41264;BME280;26998;48.714;9.414;2024-03-07T02:12:54;99297.72;;;3.67;83.50
41264;BME280;26998;48.714;9.414;2024-03-07T02:15:21;99319.25;;;3.77;83.19
41264;BME280;26998;48.714;9.414;2024-03-07T02:17:48;99328.69;;;3.64;84.86
41264;BME280;26998;48.714;9.414;2024-03-07T02:20:14;99309.41;;;3.57;83.87
41264;BME280;26998;48.714;9.414;2024-03-07T02:22:42;99302.66;;;3.62;82.43
41264;BME280;26998;48.714;9.414;2024-03-07T02:25:09;99325.84;;;3.96;81.68
41264;BME280;26998;48.714;9.414;2024-03-07T02:27:39;99324.63;;;3.84;82.10
41264;BME280;26998;48.714;9.414;2024-03-07T02:30:05;99322.22;;;3.51;83.16
41264;BME280;26998;48.714;9.414;2024-03-07T02:32:35;99306.44;;;3.29;84.54
41264;BME280;26998;48.714;9.414;2024-03-07T02:35:04;99318.59;;;3.22;85.17
41264;BME280;26998;48.714;9.414;2024-03-07T02:37:31;99310.97;;;3.04;85.81
41264;BME280;26998;48.714;9.414;2024-03-07T02:39:58;99314.75;;;3.02;86.19
41264;BME280;26998;48.714;9.414;2024-03-07T02:42:25;99309.72;;;2.92;86.41
41264;BME280;26998;48.714;9.414;2024-03-07T02:44:52;99313.34;;;2.83;86.97
41264;BME280;26998;48.714;9.414;2024-03-07T02:47:19;99294.59;;;2.64;87.42
41264;BME280;26998;48.714;9.414;2024-03-07T02:49:46;99310.31;;;2.64;87.66
41264;BME280;26998;48.714;9.414;2024-03-07T02:52:12;99298.25;;;2.47;89.27
41264;BME280;26998;48.714;9.414;2024-03-07T02:54:39;99309.66;;;2.62;90.04
41264;BME280;26998;48.714;9.414;2024-03-07T02:57:06;99294.47;;;2.49;89.94
41264;BME280;26998;48.714;9.414;2024-03-07T02:59:33;99305.56;;;2.59;90.31
41264;BME280;26998;48.714;9.414;2024-03-07T03:02:00;99300.66;;;2.56;89.50
41264;BME280;26998;48.714;9.414;2024-03-07T03:04:27;99307.88;;;2.46;89.61
41264;BME280;26998;48.714;9.414;2024-03-07T03:06:54;99299.53;;;2.59;88.94
41264;BME280;26998;48.714;9.414;2024-03-07T03:09:20;99255.94;;;2.11;88.64
41264;BME280;26998;48.714;9.414;2024-03-07T03:11:50;99299.41;;;2.28;89.07
41264;BME280;26998;48.714;9.414;2024-03-07T03:14:21;99248.13;;;2.19;88.37
41264;BME280;26998;48.714;9.414;2024-03-07T03:16:48;99300.72;;;2.24;88.69
41264;BME280;26998;48.714;9.414;2024-03-07T03:19:15;99278.66;;;2.02;88.85
41264;BME280;26998;48.714;9.414;2024-03-07T03:21:41;99304.16;;;2.08;89.48
41264;BME280;26998;48.714;9.414;2024-03-07T03:24:09;99298.78;;;2.02;90.07
41264;BME280;26998;48.714;9.414;2024-03-07T03:26:36;99277.38;;;1.98;90.32
41264;BME280;26998;48.714;9.414;2024-03-07T03:29:04;99282.44;;;2.00;90.59
41264;BME280;26998;48.714;9.414;2024-03-07T03:31:32;99271.97;;;1.92;91.06
41264;BME280;26998;48.714;9.414;2024-03-07T03:34:01;99286.53;;;1.94;91.24
41264;BME280;26998;48.714;9.414;2024-03-07T03:36:28;99268.06;;;1.80;91.28
41264;BME280;26998;48.714;9.414;2024-03-07T03:38:56;99279.50;;;1.79;90.71
41264;BME280;26998;48.714;9.414;2024-03-07T03:41:23;99280.31;;;1.79;91.30
41264;BME280;26998;48.714;9.414;2024-03-07T03:43:53;99277.19;;;1.92;90.86
41264;BME280;26998;48.714;9.414;2024-03-07T03:46:19;99268.22;;;1.70;90.90
41264;BME280;26998;48.714;9.414;2024-03-07T03:48:46;99278.34;;;1.81;90.56
41264;BME280;26998;48.714;9.414;2024-03-07T03:51:12;99287.66;;;1.76;90.02
41264;BME280;26998;48.714;9.414;2024-03-07T03:53:39;99295.97;;;1.71;90.23
41264;BME280;26998;48.714;9.414;2024-03-07T03:56:09;99251.53;;;1.47;90.62
41264;BME280;26998;48.714;9.414;2024-03-07T03:58:40;99290.91;;;1.70;90.39
41264;BME280;26998;48.714;9.414;2024-03-07T04:01:09;99290.75;;;1.71;90.19
41264;BME280;26998;48.714;9.414;2024-03-07T04:03:40;99272.44;;;1.39;90.21
41264;BME280;26998;48.714;9.414;2024-03-07T04:06:06;99286.97;;;1.50;90.44
41264;BME280;26998;48.714;9.414;2024-03-07T04:08:33;99282.88;;;1.47;90.22
41264;BME280;26998;48.714;9.414;2024-03-07T04:11:04;99283.38;;;1.43;90.69
41264;BME280;26998;48.714;9.414;2024-03-07T04:13:31;99281.25;;;1.54;90.57
41264;BME280;26998;48.714;9.414;2024-03-07T04:16:04;99294.19;;;1.64;90.64
41264;BME280;26998;48.714;9.414;2024-03-07T04:18:31;99270.31;;;1.43;91.03
41264;BME280;26998;48.714;9.414;2024-03-07T04:20:59;99271.59;;;1.39;91.01
41264;BME280;26998;48.714;9.414;2024-03-07T04:23:28;99284.19;;;1.43;90.99
41264;BME280;26998;48.714;9.414;2024-03-07T04:25:54;99288.75;;;1.41;91.08
41264;BME280;26998;48.714;9.414;2024-03-07T04:28:22;99281.59;;;1.43;91.43
41264;BME280;26998;48.714;9.414;2024-03-07T04:30:49;99271.28;;;1.42;90.68
41264;BME280;26998;48.714;9.414;2024-03-07T04:33:15;99239.94;;;1.26;90.43
41264;BME280;26998;48.714;9.414;2024-03-07T04:35:43;99254.50;;;1.52;90.07
41264;BME280;26998;48.714;9.414;2024-03-07T04:38:10;99279.66;;;1.61;89.18
41264;BME280;26998;48.714;9.414;2024-03-07T04:40:42;99270.31;;;1.51;89.30
41264;BME280;26998;48.714;9.414;2024-03-07T04:43:08;99255.78;;;1.32;89.91
41264;BME280;26998;48.714;9.414;2024-03-07T04:45:35;99237.97;;;1.19;90.06
41264;BME280;26998;48.714;9.414;2024-03-07T04:48:02;99282.41;;;1.52;89.85
41264;BME280;26998;48.714;9.414;2024-03-07T04:50:28;99267.88;;;1.41;89.85
41264;BME280;26998;48.714;9.414;2024-03-07T04:52:58;99253.16;;;1.24;90.30
41264;BME280;26998;48.714;9.414;2024-03-07T04:55:25;99257.56;;;1.32;90.07
41264;BME280;26998;48.714;9.414;2024-03-07T04:57:51;99272.94;;;1.43;89.71
41264;BME280;26998;48.714;9.414;2024-03-07T05:00:18;99277.16;;;1.36;90.24
41264;BME280;26998;48.714;9.414;2024-03-07T05:02:49;99247.91;;;1.08;89.82
41264;BME280;26998;48.714;9.414;2024-03-07T05:05:17;99226.19;;;0.99;90.98
41264;BME280;26998;48.714;9.414;2024-03-07T05:07:54;99278.47;;;1.40;90.72
41264;BME280;26998;48.714;9.414;2024-03-07T05:10:22;99272.72;;;1.28;90.09
41264;BME280;26998;48.714;9.414;2024-03-07T05:12:49;99256.59;;;1.41;88.73
41264;BME280;26998;48.714;9.414;2024-03-07T05:15:16;99275.38;;;1.36;88.82
41264;BME280;26998;48.714;9.414;2024-03-07T05:17:43;99268.00;;;1.24;89.56
41264;BME280;26998;48.714;9.414;2024-03-07T05:20:11;99247.41;;;1.04;90.22
41264;BME280;26998;48.714;9.414;2024-03-07T05:22:39;99231.53;;;0.90;89.96
41264;BME280;26998;48.714;9.414;2024-03-07T05:25:19;99260.44;;;1.12;89.69
41264;BME280;26998;48.714;9.414;2024-03-07T05:27:46;99249.84;;;1.14;89.91
41264;BME280;26998;48.714;9.414;2024-03-07T05:30:13;99253.78;;;1.10;90.30
41264;BME280;26998;48.714;9.414;2024-03-07T05:32:42;99229.78;;;1.06;90.15
41264;BME280;26998;48.714;9.414;2024-03-07T05:35:09;99279.41;;;1.23;90.10
41264;BME280;26998;48.714;9.414;2024-03-07T05:37:38;99234.00;;;0.91;90.53
41264;BME280;26998;48.714;9.414;2024-03-07T05:40:08;99268.59;;;1.09;90.27
41264;BME280;26998;48.714;9.414;2024-03-07T05:42:35;99263.03;;;0.96;90.84
41264;BME280;26998;48.714;9.414;2024-03-07T05:45:02;99284.25;;;1.09;90.95
41264;BME280;26998;48.714;9.414;2024-03-07T05:47:29;99288.06;;;1.23;89.88
41264;BME280;26998;48.714;9.414;2024-03-07T05:49:57;99254.19;;;0.89;89.57
41264;BME280;26998;48.714;9.414;2024-03-07T05:52:23;99277.22;;;1.02;90.04
41264;BME280;26998;48.714;9.414;2024-03-07T05:54:50;99268.88;;;0.90;90.00
41264;BME280;26998;48.714;9.414;2024-03-07T05:57:17;99286.97;;;0.92;90.09
41264;BME280;26998;48.714;9.414;2024-03-07T05:59:43;99291.88;;;0.95;90.69
41264;BME280;26998;48.714;9.414;2024-03-07T06:02:12;99279.19;;;1.00;89.84
41264;BME280;26998;48.714;9.414;2024-03-07T06:04:42;99233.53;;;0.62;90.12
41264;BME280;26998;48.714;9.414;2024-03-07T06:07:10;99256.16;;;0.87;89.73
41264;BME280;26998;48.714;9.414;2024-03-07T06:09:40;99285.09;;;1.18;88.95
41264;BME280;26998;48.714;9.414;2024-03-07T06:12:07;99255.56;;;1.09;89.20
41264;BME280;26998;48.714;9.414;2024-03-07T06:14:48;99239.56;;;1.04;89.60
41264;BME280;26998;48.714;9.414;2024-03-07T06:17:15;99253.94;;;1.16;88.75
41264;BME280;26998;48.714;9.414;2024-03-07T06:19:45;99283.50;;;1.25;88.51
41264;BME280;26998;48.714;9.414;2024-03-07T06:22:12;99279.75;;;1.28;88.72
41264;BME280;26998;48.714;9.414;2024-03-07T06:24:38;99260.66;;;1.19;89.34
41264;BME280;26998;48.714;9.414;2024-03-07T06:27:06;99273.72;;;1.19;89.53
41264;BME280;26998;48.714;9.414;2024-03-07T06:29:42;99269.28;;;1.19;89.42
41264;BME280;26998;48.714;9.414;2024-03-07T06:32:09;99225.19;;;1.00;88.72
41264;BME280;26998;48.714;9.414;2024-03-07T06:34:37;99279.28;;;1.40;88.35
41264;BME280;26998;48.714;9.414;2024-03-07T06:37:04;99258.72;;;1.37;88.38
41264;BME280;26998;48.714;9.414;2024-03-07T06:39:31;99261.50;;;1.44;87.57
41264;BME280;26998;48.714;9.414;2024-03-07T06:41:58;99279.97;;;1.58;87.29
41264;BME280;26998;48.714;9.414;2024-03-07T06:44:25;99239.94;;;1.34;86.45
41264;BME280;26998;48.714;9.414;2024-03-07T06:46:53;99257.94;;;1.53;86.20
41264;BME280;26998;48.714;9.414;2024-03-07T06:49:20;99279.84;;;1.76;85.90
41264;BME280;26998;48.714;9.414;2024-03-07T06:51:47;99266.56;;;1.69;86.16
41264;BME280;26998;48.714;9.414;2024-03-07T06:54:14;99221.38;;;1.45;86.26
41264;BME280;26998;48.714;9.414;2024-03-07T06:56:40;99257.44;;;1.73;85.81
41264;BME280;26998;48.714;9.414;2024-03-07T06:59:10;99274.41;;;1.93;85.42
41264;BME280;26998;48.714;9.414;2024-03-07T07:01:37;99293.38;;;2.03;86.35
41264;BME280;26998;48.714;9.414;2024-03-07T07:04:04;99283.06;;;2.18;84.91
41264;BME280;26998;48.714;9.414;2024-03-07T07:06:30;99262.84;;;2.12;84.23
41264;BME280;26998;48.714;9.414;2024-03-07T07:08:58;99288.94;;;2.28;84.14
41264;BME280;26998;48.714;9.414;2024-03-07T07:11:26;99288.78;;;2.38;84.28
41264;BME280;26998;48.714;9.414;2024-03-07T07:13:58;99261.47;;;2.32;83.71
41264;BME280;26998;48.714;9.414;2024-03-07T07:16:26;99268.34;;;2.41;82.14
41264;BME280;26998;48.714;9.414;2024-03-07T07:18:53;99264.59;;;2.35;83.66
41264;BME280;26998;48.714;9.414;2024-03-07T07:21:21;99283.81;;;2.51;83.99
41264;BME280;26998;48.714;9.414;2024-03-07T07:23:48;99258.84;;;2.40;84.24
41264;BME280;26998;48.714;9.414;2024-03-07T07:26:15;99282.47;;;2.71;83.53
41264;BME280;26998;48.714;9.414;2024-03-07T07:28:41;99271.19;;;2.70;83.04
41264;BME280;26998;48.714;9.414;2024-03-07T07:31:08;99278.03;;;2.79;82.96
41264;BME280;26998;48.714;9.414;2024-03-07T07:33:35;99258.75;;;2.72;82.42
41264;BME280;26998;48.714;9.414;2024-03-07T07:36:05;99237.53;;;2.59;82.15
41264;BME280;26998;48.714;9.414;2024-03-07T07:38:32;99278.31;;;2.92;82.55
41264;BME280;26998;48.714;9.414;2024-03-07T07:40:58;99257.00;;;2.95;82.55
41264;BME280;26998;48.714;9.414;2024-03-07T07:43:25;99253.31;;;3.12;81.52
41264;BME280;26998;48.714;9.414;2024-03-07T07:46:07;99235.75;;;2.98;80.79
41264;BME280;26998;48.714;9.414;2024-03-07T07:48:34;99269.69;;;3.45;79.35
41264;BME280;26998;48.714;9.414;2024-03-07T07:51:00;99259.06;;;3.38;79.93
41264;BME280;26998;48.714;9.414;2024-03-07T07:53:27;99235.94;;;3.19;80.09
41264;BME280;26998;48.714;9.414;2024-03-07T07:55:54;99270.16;;;3.48;80.55
41264;BME280;26998;48.714;9.414;2024-03-07T07:58:21;99239.66;;;3.33;80.72
41264;BME280;26998;48.714;9.414;2024-03-07T08:00:48;99255.81;;;3.59;80.56
41264;BME280;26998;48.714;9.414;2024-03-07T08:03:15;99253.63;;;3.71;79.43
41264;BME280;26998;48.714;9.414;2024-03-07T08:05:44;99262.69;;;4.05;78.99
41264;BME280;26998;48.714;9.414;2024-03-07T08:08:14;99221.63;;;4.12;76.69
41264;BME280;26998;48.714;9.414;2024-03-07T08:10:43;99230.78;;;4.31;75.43
41264;BME280;26998;48.714;9.414;2024-03-07T08:13:13;99258.03;;;4.44;74.66
41264;BME280;26998;48.714;9.414;2024-03-07T08:15:40;99224.00;;;4.22;75.40
41264;BME280;26998;48.714;9.414;2024-03-07T08:18:08;99232.88;;;4.21;74.54
41264;BME280;26998;48.714;9.414;2024-03-07T08:20:39;99237.28;;;4.35;76.72
41264;BME280;26998;48.714;9.414;2024-03-07T08:23:08;99239.38;;;4.39;75.95
41264;BME280;26998;48.714;9.414;2024-03-07T08:25:36;99204.72;;;4.15;75.85
41264;BME280;26998;48.714;9.414;2024-03-07T08:28:02;99243.56;;;4.48;75.14
41264;BME280;26998;48.714;9.414;2024-03-07T08:30:29;99225.25;;;4.40;75.23
41264;BME280;26998;48.714;9.414;2024-03-07T08:32:57;99249.34;;;4.58;74.10
41264;BME280;26998;48.714;9.414;2024-03-07T08:35:25;99241.00;;;4.40;75.66
41264;BME280;26998;48.714;9.414;2024-03-07T08:37:55;99224.56;;;4.46;75.52
41264;BME280;26998;48.714;9.414;2024-03-07T08:40:27;99236.03;;;4.31;73.97
41264;BME280;26998;48.714;9.414;2024-03-07T08:42:58;99236.56;;;4.12;74.99
41264;BME280;26998;48.714;9.414;2024-03-07T08:45:26;99235.59;;;4.27;75.84
41264;BME280;26998;48.714;9.414;2024-03-07T08:47:55;99248.16;;;4.46;76.67
41264;BME280;26998;48.714;9.414;2024-03-07T08:50:23;99207.56;;;4.28;74.65
41264;BME280;26998;48.714;9.414;2024-03-07T08:52:51;99239.03;;;4.28;76.34
41264;BME280;26998;48.714;9.414;2024-03-07T08:55:20;99236.31;;;4.36;76.25
41264;BME280;26998;48.714;9.414;2024-03-07T08:57:47;99207.81;;;4.47;76.84
41264;BME280;26998;48.714;9.414;2024-03-07T09:00:19;99236.59;;;5.06;75.17
41264;BME280;26998;48.714;9.414;2024-03-07T09:02:50;99214.78;;;4.55;74.92
41264;BME280;26998;48.714;9.414;2024-03-07T09:05:23;99207.06;;;4.68;74.64
41264;BME280;26998;48.714;9.414;2024-03-07T09:07:52;99195.84;;;4.74;74.51
41264;BME280;26998;48.714;9.414;2024-03-07T09:10:19;99212.56;;;4.88;72.82
41264;BME280;26998;48.714;9.414;2024-03-07T09:12:47;99230.78;;;5.25;72.55
41264;BME280;26998;48.714;9.414;2024-03-07T09:15:16;99198.75;;;5.36;71.49
41264;BME280;26998;48.714;9.414;2024-03-07T09:17:44;99231.88;;;5.51;71.62
41264;BME280;26998;48.714;9.414;2024-03-07T09:20:12;99232.81;;;5.65;73.05
41264;BME280;26998;48.714;9.414;2024-03-07T09:22:43;99173.28;;;5.57;71.58
41264;BME280;26998;48.714;9.414;2024-03-07T09:25:10;99189.91;;;5.64;71.62
41264;BME280;26998;48.714;9.414;2024-03-07T09:27:37;99203.13;;;6.20;69.46
41264;BME280;26998;48.714;9.414;2024-03-07T09:30:05;99208.25;;;6.28;69.68
41264;BME280;26998;48.714;9.414;2024-03-07T09:32:34;99217.97;;;6.27;68.71
41264;BME280;26998;48.714;9.414;2024-03-07T09:35:01;99217.88;;;6.42;68.72
41264;BME280;26998;48.714;9.414;2024-03-07T09:37:28;99198.97;;;6.66;68.17
41264;BME280;26998;48.714;9.414;2024-03-07T09:39:56;99212.66;;;6.55;67.71
41264;BME280;26998;48.714;9.414;2024-03-07T09:42:25;99214.63;;;6.40;69.03
41264;BME280;26998;48.714;9.414;2024-03-07T09:44:52;99196.25;;;6.53;69.54
41264;BME280;26998;48.714;9.414;2024-03-07T09:47:20;99211.31;;;6.65;68.92
41264;BME280;26998;48.714;9.414;2024-03-07T09:49:46;99174.88;;;6.75;68.16
41264;BME280;26998;48.714;9.414;2024-03-07T09:52:14;99210.38;;;6.86;67.48
41264;BME280;26998;48.714;9.414;2024-03-07T09:54:42;99211.06;;;7.01;67.97
41264;BME280;26998;48.714;9.414;2024-03-07T09:57:09;99166.34;;;6.67;67.51
41264;BME280;26998;48.714;9.414;2024-03-07T09:59:38;99186.22;;;7.30;66.26
41264;BME280;26998;48.714;9.414;2024-03-07T10:02:06;99210.78;;;7.63;65.51
41264;BME280;26998;48.714;9.414;2024-03-07T10:04:41;99214.09;;;8.04;65.22
41264;BME280;26998;48.714;9.414;2024-03-07T10:07:10;99178.72;;;8.11;64.94
41264;BME280;26998;48.714;9.414;2024-03-07T10:09:40;99201.47;;;7.99;64.54
41264;BME280;26998;48.714;9.414;2024-03-07T10:12:08;99187.66;;;7.97;64.61
41264;BME280;26998;48.714;9.414;2024-03-07T10:14:49;99187.28;;;8.00;63.62
41264;BME280;26998;48.714;9.414;2024-03-07T10:17:17;99188.06;;;7.62;64.41
41264;BME280;26998;48.714;9.414;2024-03-07T10:19:48;99215.63;;;7.40;63.31
41264;BME280;26998;48.714;9.414;2024-03-07T10:22:17;99205.31;;;7.51;64.85
41264;BME280;26998;48.714;9.414;2024-03-07T10:24:52;99186.75;;;7.06;65.81
41264;BME280;26998;48.714;9.414;2024-03-07T10:27:28;99207.94;;;7.45;64.78
41264;BME280;26998;48.714;9.414;2024-03-07T10:29:55;99185.75;;;7.13;65.95
41264;BME280;26998;48.714;9.414;2024-03-07T10:32:22;99183.81;;;7.67;64.73
41264;BME280;26998;48.714;9.414;2024-03-07T10:34:53;99201.66;;;7.52;63.50
41264;BME280;26998;48.714;9.414;2024-03-07T10:37:21;99201.47;;;7.73;64.62
41264;BME280;26998;48.714;9.414;2024-03-07T10:39:48;99187.88;;;7.50;66.25
41264;BME280;26998;48.714;9.414;2024-03-07T10:42:19;99201.88;;;7.57;66.18
41264;BME280;26998;48.714;9.414;2024-03-07T10:44:48;99198.56;;;7.29;64.13
41264;BME280;26998;48.714;9.414;2024-03-07T10:47:20;99199.22;;;7.44;64.11
41264;BME280;26998;48.714;9.414;2024-03-07T10:49:59;99196.22;;;7.86;64.76
41264;BME280;26998;48.714;9.414;2024-03-07T10:52:39;99195.00;;;7.95;63.78
41264;BME280;26998;48.714;9.414;2024-03-07T11:00:07;99195.41;;;8.05;61.62
41264;BME280;26998;48.714;9.414;2024-03-07T11:02:54;99187.69;;;7.78;64.41
41264;BME280;26998;48.714;9.414;2024-03-07T11:05:25;99182.59;;;8.09;63.24
41264;BME280;26998;48.714;9.414;2024-03-07T11:07:52;99166.16;;;8.07;64.10
41264;BME280;26998;48.714;9.414;2024-03-07T11:10:20;99172.81;;;8.36;62.58
41264;BME280;26998;48.714;9.414;2024-03-07T11:12:48;99158.25;;;8.07;61.62
41264;BME280;26998;48.714;9.414;2024-03-07T11:15:18;99177.09;;;8.37;59.87
41264;BME280;26998;48.714;9.414;2024-03-07T11:17:50;99179.16;;;8.08;62.26
41264;BME280;26998;48.714;9.414;2024-03-07T11:20:29;99174.03;;;8.40;62.42
41264;BME280;26998;48.714;9.414;2024-03-07T11:23:00;99145.00;;;8.27;60.96
41264;BME280;26998;48.714;9.414;2024-03-07T11:25:29;99164.50;;;8.32;61.46
41264;BME280;26998;48.714;9.414;2024-03-07T11:27:58;99156.41;;;8.07;61.40
41264;BME280;26998;48.714;9.414;2024-03-07T11:30:26;99147.88;;;8.32;61.94
41264;BME280;26998;48.714;9.414;2024-03-07T11:32:53;99139.16;;;8.05;61.09
41264;BME280;26998;48.714;9.414;2024-03-07T11:35:33;99142.81;;;7.91;62.08
41264;BME280;26998;48.714;9.414;2024-03-07T11:38:07;99147.06;;;8.25;60.96
41264;BME280;26998;48.714;9.414;2024-03-07T11:43:01;99124.03;;;8.51;58.50
41264;BME280;26998;48.714;9.414;2024-03-07T11:45:32;99107.03;;;8.21;60.55
41264;BME280;26998;48.714;9.414;2024-03-07T11:48:11;99117.84;;;8.00;59.71
41264;BME280;26998;48.714;9.414;2024-03-07T11:50:39;99119.84;;;8.31;59.68
41264;BME280;26998;48.714;9.414;2024-03-07T11:53:08;99117.84;;;7.87;60.73
41264;BME280;26998;48.714;9.414;2024-03-07T11:55:39;99082.09;;;8.10;61.23
41264;BME280;26998;48.714;9.414;2024-03-07T11:58:13;99113.72;;;8.37;59.51
41264;BME280;26998;48.714;9.414;2024-03-07T12:00:44;99108.44;;;8.30;60.51
41264;BME280;26998;48.714;9.414;2024-03-07T12:03:18;99116.06;;;8.58;61.24
41264;BME280;26998;48.714;9.414;2024-03-07T12:05:48;99083.84;;;8.87;59.87
41264;BME280;26998;48.714;9.414;2024-03-07T12:08:15;99109.97;;;9.01;60.07
41264;BME280;26998;48.714;9.414;2024-03-07T12:10:43;99100.88;;;8.91;59.06
41264;BME280;26998;48.714;9.414;2024-03-07T12:13:15;99099.81;;;8.61;59.43
41264;BME280;26998;48.714;9.414;2024-03-07T12:15:43;99101.16;;;9.14;59.20
41264;BME280;26998;48.714;9.414;2024-03-07T12:18:10;99067.28;;;8.67;58.00
41264;BME280;26998;48.714;9.414;2024-03-07T12:20:41;99072.91;;;8.77;59.88
41264;BME280;26998;48.714;9.414;2024-03-07T12:23:09;99094.03;;;9.14;58.37
41264;BME280;26998;48.714;9.414;2024-03-07T12:25:35;99063.03;;;8.97;57.67
41264;BME280;26998;48.714;9.414;2024-03-07T12:28:10;99048.41;;;8.94;58.32
41264;BME280;26998;48.714;9.414;2024-03-07T12:30:52;99082.81;;;9.19;57.73
41264;BME280;26998;48.714;9.414;2024-03-07T12:33:21;99091.78;;;9.18;58.67
41264;BME280;26998;48.714;9.414;2024-03-07T12:35:51;99080.94;;;9.26;59.27
41264;BME280;26998;48.714;9.414;2024-03-07T12:38:19;99067.78;;;9.19;58.57
41264;BME280;26998;48.714;9.414;2024-03-07T12:40:46;99045.22;;;9.42;57.71
41264;BME280;26998;48.714;9.414;2024-03-07T12:43:20;99064.00;;;9.33;58.44
41264;BME280;26998;48.714;9.414;2024-03-07T12:45:51;99049.88;;;8.90;59.06
41264;BME280;26998;48.714;9.414;2024-03-07T12:48:19;99047.78;;;8.99;59.41
41264;BME280;26998;48.714;9.414;2024-03-07T12:50:49;99065.09;;;8.95;61.60
41264;BME280;26998;48.714;9.414;2024-03-07T12:53:22;99065.34;;;8.87;61.00
41264;BME280;26998;48.714;9.414;2024-03-07T12:55:50;99044.28;;;8.74;60.75
41264;BME280;26998;48.714;9.414;2024-03-07T12:58:18;99068.72;;;8.63;60.52
41264;BME280;26998;48.714;9.414;2024-03-07T13:00:53;99032.66;;;8.81;59.39
41264;BME280;26998;48.714;9.414;2024-03-07T13:03:23;99043.75;;;8.59;59.89
41264;BME280;26998;48.714;9.414;2024-03-07T13:05:57;99060.50;;;8.77;58.95
41264;BME280;26998;48.714;9.414;2024-03-07T13:08:28;99045.91;;;8.31;59.95
41264;BME280;26998;48.714;9.414;2024-03-07T13:10:58;99038.59;;;9.01;57.99
41264;BME280;26998;48.714;9.414;2024-03-07T13:13:28;99065.44;;;9.29;58.15
41264;BME280;26998;48.714;9.414;2024-03-07T13:15:54;99022.97;;;9.00;57.88
41264;BME280;26998;48.714;9.414;2024-03-07T13:18:22;99057.94;;;9.26;59.14
41264;BME280;26998;48.714;9.414;2024-03-07T13:20:50;99037.06;;;8.87;59.49
41264;BME280;26998;48.714;9.414;2024-03-07T13:23:16;99052.84;;;9.25;59.30
41264;BME280;26998;48.714;9.414;2024-03-07T13:25:43;99046.94;;;9.29;58.76
41264;BME280;26998;48.714;9.414;2024-03-07T13:28:13;99059.34;;;9.54;58.75